Time;durP1;ratioP1;P1;durP2;ratioP2;P2;SDS_P1;SDS_P2;PMS_P1;PMS_P2;Temp;Humidity;BMP_temperature;BMP_pressure;BME280_temperature;BME280_humidity;BME280_pressure;Samples;Min_cycle;Max_cycle;Signal;HPM_P1;HPM_P2
2021/06/11 00:00:56;;;;;;;15.10;12.25;;;;;;;16.87;100.00;96648.78;4986476;28;20082;-60
2021/06/11 00:03:24;;;;;;;15.88;13.15;;;;;;;16.77;100.00;96641.84;4991071;28;20065;-54
2021/06/11 00:05:53;;;;;;;14.32;12.77;;;;;;;16.48;100.00;96652.34;4987117;28;20070;-49
2021/06/11 00:08:21;;;;;;;15.73;13.75;;;;;;;16.47;100.00;96637.38;4988055;28;20569;-57
2021/06/11 00:10:49;;;;;;;18.58;13.60;;;;;;;16.50;100.00;96643.19;4991067;28;20496;-52
2021/06/11 00:13:17;;;;;;;14.82;13.25;;;;;;;16.37;100.00;96638.44;4986599;28;20089;-58
2021/06/11 00:15:44;;;;;;;18.50;14.60;;;;;;;16.34;100.00;96637.97;4990733;28;20074;-58
2021/06/11 00:18:12;;;;;;;17.70;14.00;;;;;;;16.35;100.00;96631.66;4989934;28;20189;-53
2021/06/11 00:20:41;;;;;;;15.70;13.50;;;;;;;16.58;100.00;96632.47;4981763;28;20073;-52
2021/06/11 00:23:10;;;;;;;14.70;12.63;;;;;;;16.65;100.00;96632.59;4991285;28;20065;-54
2021/06/11 00:25:38;;;;;;;15.95;13.43;;;;;;;16.70;100.00;96630.22;4985338;28;20482;-55
2021/06/11 00:28:06;;;;;;;15.90;13.63;;;;;;;16.70;100.00;96632.88;4991699;28;20116;-59
2021/06/11 00:30:35;;;;;;;16.38;14.13;;;;;;;16.57;100.00;96638.81;4990753;28;20479;-57
2021/06/11 00:33:04;;;;;;;17.08;14.27;;;;;;;16.46;100.00;96641.06;4987255;28;20066;-58
2021/06/11 00:35:32;;;;;;;16.48;13.48;;;;;;;16.38;100.00;96637.44;4971006;28;20070;-56
2021/06/11 00:38:00;;;;;;;16.42;13.55;;;;;;;16.47;100.00;96646.19;4971384;28;20472;-56
2021/06/11 00:40:29;;;;;;;14.68;13.10;;;;;;;16.47;100.00;96632.06;4963308;28;20105;-57
2021/06/11 00:42:57;;;;;;;15.10;12.75;;;;;;;16.50;100.00;96631.72;4968629;28;20082;-54
2021/06/11 00:45:25;;;;;;;15.05;12.57;;;;;;;16.52;100.00;96635.03;4965938;28;20576;-55
2021/06/11 00:47:53;;;;;;;15.32;12.48;;;;;;;16.65;100.00;96629.91;4965705;28;20066;-52
2021/06/11 00:50:24;;;;;;;13.88;12.38;;;;;;;16.65;100.00;96637.09;4966342;28;20078;-54
2021/06/11 00:52:52;;;;;;;13.67;11.80;;;;;;;16.65;100.00;96624.59;4967046;28;20077;-55
2021/06/11 00:55:20;;;;;;;13.48;11.35;;;;;;;16.40;100.00;96636.44;4968410;28;20516;-57
2021/06/11 00:57:50;;;;;;;12.32;10.85;;;;;;;16.33;100.00;96626.50;4974251;28;20549;-57
2021/06/11 01:00:19;;;;;;;12.30;11.00;;;;;;;16.60;100.00;96626.97;4963910;28;20077;-56
2021/06/11 01:02:47;;;;;;;13.15;10.88;;;;;;;16.44;100.00;96622.59;4971502;28;20538;-59
2021/06/11 01:05:15;;;;;;;14.23;11.30;;;;;;;16.62;100.00;96619.66;4969299;28;20073;-57
2021/06/11 01:07:45;;;;;;;14.20;11.68;;;;;;;16.48;100.00;96620.41;4966414;28;20081;-56
2021/06/11 01:10:13;;;;;;;13.00;11.35;;;;;;;16.48;100.00;96612.41;4969757;28;20085;-57
2021/06/11 01:12:41;;;;;;;12.82;11.35;;;;;;;16.47;100.00;96616.09;4969965;28;20084;-57
2021/06/11 01:15:12;;;;;;;13.68;12.27;;;;;;;16.62;100.00;96611.66;4966044;28;20070;-57
2021/06/11 01:17:40;;;;;;;12.73;11.32;;;;;;;16.33;100.00;96612.38;4969827;28;20530;-59
2021/06/11 01:20:10;;;;;;;11.75;10.55;;;;;;;16.49;100.00;96604.28;4968572;28;20054;-51
2021/06/11 01:22:51;;;;;;;12.80;11.33;;;;;;;15.99;100.00;96612.72;4965613;28;20062;-52
2021/06/11 01:25:26;;;;;;;12.52;11.05;;;;;;;16.00;100.00;96611.72;4969035;28;20082;-51
2021/06/11 01:27:56;;;;;;;12.52;11.23;;;;;;;16.21;100.00;96601.31;4967619;28;20084;-48
2021/06/11 01:30:25;;;;;;;13.02;10.50;;;;;;;16.18;100.00;96604.31;4973518;28;20070;-54
2021/06/11 01:32:55;;;;;;;13.07;11.07;;;;;;;16.13;100.00;96604.00;4968373;28;20059;-54
2021/06/11 01:35:27;;;;;;;12.00;10.80;;;;;;;16.20;100.00;96599.63;4981141;28;20070;-58
2021/06/11 01:37:58;;;;;;;12.70;11.40;;;;;;;16.38;100.00;96597.53;4983452;28;20216;-56
2021/06/11 01:40:26;;;;;;;;;;;;;;;16.09;100.00;96592.88;4988446;28;20062;-57
2021/06/11 01:42:56;;;;;;;12.98;10.88;;;;;;;16.34;100.00;96600.69;4984416;28;20358;-60
2021/06/11 01:45:24;;;;;;;12.63;10.30;;;;;;;16.35;100.00;96597.06;4987181;28;20077;-57
2021/06/11 01:47:53;;;;;;;14.07;10.50;;;;;;;16.29;100.00;96593.25;4987181;28;20058;-57
2021/06/11 01:50:24;;;;;;;17.15;11.15;;;;;;;16.16;100.00;96598.34;4984289;28;20073;-59
2021/06/11 01:52:54;;;;;;;15.93;10.90;;;;;;;16.23;100.00;96585.97;4990347;28;20073;-55
2021/06/11 01:55:23;;;;;;;12.93;10.68;;;;;;;16.13;100.00;96596.03;4986961;28;20551;-51
2021/06/11 01:57:51;;;;;;;13.50;11.10;;;;;;;15.96;100.00;96597.13;4985147;28;20093;-54
2021/06/11 02:00:21;;;;;;;13.20;10.80;;;;;;;16.07;100.00;96591.41;4987877;28;20070;-57
2021/06/11 02:02:49;;;;;;;13.63;10.90;;;;;;;15.99;100.00;96592.28;4983013;28;20088;-58
2021/06/11 02:05:17;;;;;;;12.73;11.43;;;;;;;16.05;100.00;96591.59;4985001;28;20069;-56
2021/06/11 02:07:47;;;;;;;12.57;11.25;;;;;;;15.89;100.00;96589.84;4986634;28;20069;-56
2021/06/11 02:10:19;;;;;;;14.17;11.67;;;;;;;15.78;100.00;96595.56;4983631;28;20090;-56
2021/06/11 02:12:47;;;;;;;12.85;11.35;;;;;;;16.03;100.00;96595.41;4992140;28;21074;-54
2021/06/11 02:15:16;;;;;;;13.13;11.57;;;;;;;15.82;100.00;96601.34;4989912;28;20073;-59
2021/06/11 02:17:47;;;;;;;13.70;11.48;;;;;;;15.96;100.00;96597.13;4985553;28;20084;-55
2021/06/11 02:20:18;;;;;;;12.85;11.50;;;;;;;16.04;100.00;96597.09;4984063;28;20505;-55
2021/06/11 02:22:45;;;;;;;;;;;;;;;15.95;100.00;96593.63;4989619;28;20072;-57
2021/06/11 02:25:15;;;;;;;12.25;10.70;;;;;;;15.94;100.00;96596.50;5022635;22;19960;-61
2021/06/11 02:27:44;;;;;;;13.77;10.98;;;;;;;15.90;100.00;96604.81;5029341;28;20077;-60
2021/06/11 02:30:14;;;;;;;13.50;11.38;;;;;;;15.98;100.00;96600.44;5025818;28;20069;-60
2021/06/11 02:32:42;;;;;;;13.18;11.18;;;;;;;15.62;100.00;96604.41;5028562;28;20474;-59
2021/06/11 02:35:14;;;;;;;13.02;11.63;;;;;;;15.43;100.00;96608.28;5023761;28;20073;-60
2021/06/11 02:37:42;;;;;;;15.77;12.35;;;;;;;15.64;100.00;96599.75;5025320;28;20041;-60
2021/06/11 02:40:10;;;;;;;13.45;11.27;;;;;;;15.85;100.00;96601.00;5021588;28;20073;-61
2021/06/11 02:42:39;;;;;;;14.30;11.40;;;;;;;15.70;100.00;96600.09;5029639;28;20470;-60
2021/06/11 02:45:09;;;;;;;12.70;11.40;;;;;;;15.60;100.00;96610.91;5022781;28;20069;-61
2021/06/11 02:47:41;;;;;;;11.93;10.70;;;;;;;15.76;100.00;96602.03;5023504;28;20076;-61
2021/06/11 02:50:13;;;;;;;13.82;11.02;;;;;;;15.83;100.00;96609.16;5023510;28;20655;-61
2021/06/11 02:52:44;;;;;;;12.55;11.13;;;;;;;15.72;100.00;96608.72;5026056;28;20073;-61
2021/06/11 02:55:13;;;;;;;15.27;11.88;;;;;;;15.88;100.00;96605.97;5018224;28;20478;-61
2021/06/11 02:57:46;;;;;;;13.30;11.90;;;;;;;15.76;100.00;96604.69;5025190;28;20038;-61
2021/06/11 03:00:15;;;;;;;14.43;12.00;;;;;;;15.72;100.00;96606.88;5018131;28;20072;-61
2021/06/11 03:02:46;;;;;;;13.38;11.98;;;;;;;15.66;100.00;96608.41;5026060;28;20057;-61
2021/06/11 03:05:17;;;;;;;15.43;12.60;;;;;;;15.80;100.00;96608.69;5022843;28;20332;-61
2021/06/11 03:07:46;;;;;;;14.00;12.25;;;;;;;15.76;100.00;96610.00;5024625;28;20072;-60
2021/06/11 03:10:15;;;;;;;15.55;12.20;;;;;;;15.60;100.00;96619.69;5021532;28;20085;-62
2021/06/11 03:12:44;;;;;;;16.65;12.73;;;;;;;15.67;100.00;96614.56;5026594;28;20445;-61
2021/06/11 03:15:13;;;;;;;14.25;12.73;;;;;;;15.63;100.00;96623.84;5025809;28;20073;-61
2021/06/11 03:17:44;;;;;;;16.98;12.68;;;;;;;15.61;100.00;96625.84;5020090;28;20066;-61
2021/06/11 03:20:15;;;;;;;13.88;11.80;;;;;;;15.74;100.00;96615.50;5026362;28;20081;-61
2021/06/11 03:22:49;;;;;;;13.63;12.10;;;;;;;15.75;100.00;96611.03;5025836;28;20461;-58
2021/06/11 03:25:21;;;;;;;14.35;12.80;;;;;;;15.66;100.00;96620.88;5024691;28;20899;-60
2021/06/11 03:27:58;;;;;;;16.60;12.85;;;;;;;15.84;100.00;96613.47;5026001;28;20175;-61
2021/06/11 03:30:27;;;;;;;13.45;12.05;;;;;;;15.71;100.00;96609.72;5025660;28;20065;-60
2021/06/11 03:32:59;;;;;;;15.10;11.98;;;;;;;15.51;100.00;96619.88;5022707;28;20076;-59
2021/06/11 03:35:31;;;;;;;15.30;12.38;;;;;;;15.84;100.00;96613.47;5027718;28;20068;-59
2021/06/11 03:38:00;;;;;;;13.95;12.20;;;;;;;15.69;100.00;96625.84;5025030;28;20072;-60
2021/06/11 03:40:31;;;;;;;14.57;12.50;;;;;;;15.67;100.00;96609.22;5021039;28;20515;-60
2021/06/11 03:42:59;;;;;;;13.63;12.20;;;;;;;15.55;100.00;96623.84;5023998;28;20081;-60
2021/06/11 03:45:29;;;;;;;15.93;12.10;;;;;;;15.87;100.00;96622.94;5025380;28;20303;-58
2021/06/11 03:47:58;;;;;;;14.18;11.75;;;;;;;15.93;100.00;96622.22;5021923;28;20072;-61
2021/06/11 03:50:29;;;;;;;13.73;11.45;;;;;;;16.07;100.00;96618.00;5024465;28;20062;-60
2021/06/11 03:52:59;;;;;;;12.80;11.50;;;;;;;16.28;100.00;96620.06;5022388;28;20064;-61
2021/06/11 03:55:29;;;;;;;13.38;11.32;;;;;;;16.09;100.00;96616.81;5025353;28;20066;-59
2021/06/11 03:58:00;;;;;;;14.10;11.60;;;;;;;16.83;100.00;96611.84;5026295;28;20064;-61
2021/06/11 04:00:30;;;;;;;13.30;10.63;;;;;;;17.75;100.00;96616.84;5021977;28;20096;-61
2021/06/11 04:02:59;;;;;;;11.80;10.60;;;;;;;19.07;100.00;96597.09;5019812;28;20080;-60
2021/06/11 04:05:30;;;;;;;13.35;10.13;;;;;;;20.46;100.00;96604.97;5027032;28;20065;-61
2021/06/11 04:07:59;;;;;;;11.55;9.50;;;;;;;20.44;100.00;96607.88;5023141;28;20080;-59
2021/06/11 04:10:30;;;;;;;10.02;8.98;;;;;;;19.79;100.00;96612.78;5026625;28;20069;-61
2021/06/11 04:13:03;;;;;;;9.80;8.80;;;;;;;19.65;100.00;96608.41;5026517;28;20077;-61
2021/06/11 04:15:33;;;;;;;10.13;8.88;;;;;;;20.58;100.00;96609.56;5022025;28;21300;-60
2021/06/11 04:18:04;;;;;;;9.48;8.55;;;;;;;21.53;100.00;96606.66;5024367;28;20061;-59
2021/06/11 04:20:34;;;;;;;9.65;8.55;;;;;;;21.94;100.00;96613.56;5025331;28;20072;-58
2021/06/11 04:23:02;;;;;;;;;;;;;;;22.22;100.00;96613.25;5022991;28;20085;-58
2021/06/11 04:25:33;;;;;;;8.93;7.95;;;;;;;22.58;100.00;96620.72;5023504;28;19972;-60
2021/06/11 04:28:04;;;;;;;10.60;7.63;;;;;;;22.92;100.00;96619.50;5025817;28;20084;-61
2021/06/11 04:30:33;;;;;;;9.65;7.60;;;;;;;22.15;100.00;96632.09;5021477;28;20370;-59
2021/06/11 04:33:01;;;;;;;8.48;7.65;;;;;;;23.76;100.00;96627.22;5020608;28;20065;-60
2021/06/11 04:35:35;;;;;;;8.48;7.68;;;;;;;23.54;100.00;96624.13;5021532;28;20536;-61
2021/06/11 04:38:04;;;;;;;9.32;7.53;;;;;;;22.46;100.00;96628.63;5018529;28;20555;-60
2021/06/11 04:40:32;;;;;;;9.57;8.65;;;;;;;22.54;100.00;96624.03;5019300;28;20065;-58
2021/06/11 04:43:00;;;;;;;8.48;7.68;;;;;;;23.73;100.00;96619.59;5022560;28;20462;-60
2021/06/11 04:45:28;;;;;;;9.45;8.55;;;;;;;23.66;100.00;96622.31;5015717;28;21306;-61
2021/06/11 04:47:56;;;;;;;8.90;8.00;;;;;;;23.58;100.00;96628.00;5021017;28;20075;-57
2021/06/11 04:50:25;;;;;;;9.70;8.00;;;;;;;23.97;100.00;96629.47;5016488;28;20069;-60
2021/06/11 04:52:53;;;;;;;8.95;8.13;;;;;;;24.09;100.00;96629.56;5020754;28;20073;-59
2021/06/11 04:55:22;;;;;;;9.02;8.23;;;;;;;24.52;100.00;96623.22;5020595;28;20085;-58
2021/06/11 04:57:51;;;;;;;10.20;7.93;;;;;;;24.33;100.00;96630.50;5023926;28;20088;-58
2021/06/11 05:00:21;;;;;;;9.05;8.15;;;;;;;23.30;100.00;96631.19;5019966;28;20076;-60
2021/06/11 05:02:49;;;;;;;8.27;7.47;;;;;;;23.12;100.00;96634.63;5019993;28;20034;-61
2021/06/11 05:05:17;;;;;;;10.35;8.18;;;;;;;22.18;100.00;96637.03;5019564;28;20461;-61
2021/06/11 05:07:45;;;;;;;9.50;8.40;;;;;;;21.91;100.00;96638.16;5024180;28;20061;-61
2021/06/11 05:10:14;;;;;;;9.05;8.15;;;;;;;21.79;100.00;96636.13;5019328;28;20092;-61
2021/06/11 05:12:43;;;;;;;9.35;8.10;;;;;;;22.12;100.00;96643.22;5028347;28;20127;-60
2021/06/11 05:15:12;;;;;;;9.30;7.93;;;;;;;22.58;100.00;96636.03;5019859;28;20078;-61
2021/06/11 05:17:40;;;;;;;8.32;7.53;;;;;;;22.80;100.00;96647.25;5020485;28;20073;-61
2021/06/11 05:20:09;;;;;;;8.52;7.53;;;;;;;23.72;100.00;96642.19;5021955;28;20637;-60
2021/06/11 05:22:37;;;;;;;9.18;7.93;;;;;;;23.17;100.00;96648.25;5020285;28;20506;-61
2021/06/11 05:25:06;;;;;;;8.75;7.85;;;;;;;24.23;100.00;96638.31;5024380;28;20085;-61
2021/06/11 05:27:34;;;;;;;10.77;8.50;;;;;;;23.94;100.00;96646.06;5019027;28;20053;-61
2021/06/11 05:30:04;;;;;;;9.32;7.97;;;;;;;24.60;100.00;96645.28;5023578;28;20068;-61
2021/06/11 05:32:32;;;;;;;8.70;7.72;;;;;;;23.27;100.00;96643.22;5016575;28;20077;-60
2021/06/11 05:35:00;;;;;;;8.68;7.88;;;;;;;24.57;100.00;96644.91;5021643;28;20099;-61
2021/06/11 05:37:28;;;;;;;9.10;8.18;;;;;;;24.43;100.00;96643.44;5018113;28;20069;-61
2021/06/11 05:39:56;;;;;;;8.68;7.97;;;;;;;24.55;97.59;96652.41;5025122;28;20521;-61
2021/06/11 05:42:24;;;;;;;8.98;8.13;;;;;;;22.98;100.00;96658.13;5020150;28;20455;-61
2021/06/11 05:44:52;;;;;;;9.43;8.02;;;;;;;23.32;100.00;96662.19;5019424;28;20112;-60
2021/06/11 05:47:21;;;;;;;9.07;8.13;;;;;;;23.17;100.00;96654.47;5017524;28;20454;-61
2021/06/11 05:49:49;;;;;;;9.18;8.27;;;;;;;22.27;100.00;96659.94;5022620;28;20061;-61
2021/06/11 05:52:17;;;;;;;9.40;8.40;;;;;;;21.51;100.00;96663.25;5016864;28;20077;-61
2021/06/11 05:54:45;;;;;;;10.73;9.18;;;;;;;20.75;100.00;96666.28;5024207;28;20081;-60
2021/06/11 05:57:13;;;;;;;10.40;9.30;;;;;;;20.37;100.00;96661.44;5017223;28;20140;-61
2021/06/11 05:59:41;;;;;;;10.75;9.75;;;;;;;19.91;100.00;96662.03;5019719;28;20097;-61
2021/06/11 06:02:10;;;;;;;10.50;9.40;;;;;;;20.03;100.00;96667.69;5019051;28;20068;-60
2021/06/11 06:04:39;;;;;;;12.02;10.05;;;;;;;20.31;100.00;96658.72;5025001;28;20448;-61
2021/06/11 06:07:07;;;;;;;12.15;9.80;;;;;;;20.30;100.00;96659.72;5020837;28;20088;-60
2021/06/11 06:09:35;;;;;;;13.00;10.20;;;;;;;20.68;100.00;96665.47;5024075;28;20082;-54
2021/06/11 06:12:03;;;;;;;12.05;10.77;;;;;;;20.61;100.00;96657.41;5027546;28;20088;-61
2021/06/11 06:14:33;;;;;;;13.93;10.48;;;;;;;20.50;100.00;96660.66;5024052;28;20061;-60
2021/06/11 06:17:00;;;;;;;12.40;10.93;;;;;;;20.50;100.00;96671.38;5025447;28;20071;-61
2021/06/11 06:19:28;;;;;;;11.77;10.57;;;;;;;20.71;100.00;96664.19;5015772;28;20073;-61
2021/06/11 06:21:58;;;;;;;12.68;10.57;;;;;;;20.74;100.00;96653.06;5028365;28;20088;-59
2021/06/11 06:24:25;;;;;;;11.18;10.07;;;;;;;21.00;100.00;96661.16;5020521;28;20757;-61
2021/06/11 06:26:53;;;;;;;11.85;10.55;;;;;;;21.00;100.00;96658.47;5021795;28;20069;-61
2021/06/11 06:29:21;;;;;;;11.00;9.88;;;;;;;21.50;100.00;96652.69;5024276;28;20544;-61
2021/06/11 06:31:50;;;;;;;11.38;9.88;;;;;;;20.83;100.00;96652.69;5024246;28;20068;-61
2021/06/11 06:34:19;;;;;;;9.40;8.40;;;;;;;20.88;100.00;96654.75;5017198;28;20088;-61
2021/06/11 06:36:47;;;;;;;8.70;7.82;;;;;;;21.21;100.00;96652.09;5013340;28;20073;-61
2021/06/11 06:39:32;;;;;;;11.02;9.10;;;;;;;21.71;100.00;96659.69;5020702;28;20129;-60
2021/06/11 06:42:00;;;;;;;10.50;9.40;;;;;;;21.99;100.00;96654.88;5023685;28;20080;-60
2021/06/11 06:44:28;;;;;;;10.77;9.38;;;;;;;21.22;100.00;96658.25;5024724;28;20057;-61
2021/06/11 06:46:56;;;;;;;12.88;9.85;;;;;;;21.61;100.00;96659.28;5025241;28;20069;-60
2021/06/11 06:49:24;;;;;;;9.60;8.60;;;;;;;21.56;100.00;96657.25;5019979;28;20591;-59
2021/06/11 06:51:52;;;;;;;10.10;8.90;;;;;;;21.84;100.00;96656.16;5010343;28;20080;-61
2021/06/11 06:54:20;;;;;;;9.45;8.50;;;;;;;21.41;100.00;96662.84;5022010;28;20060;-60
2021/06/11 06:56:50;;;;;;;10.95;8.80;;;;;;;21.71;100.00;96660.53;5025768;28;20072;-61
2021/06/11 06:59:20;;;;;;;9.77;8.80;;;;;;;21.47;100.00;96661.16;5020963;28;20077;-61
2021/06/11 07:01:48;;;;;;;11.63;8.80;;;;;;;22.12;100.00;96666.59;5018856;28;20495;-61
2021/06/11 07:04:17;;;;;;;10.15;9.07;;;;;;;21.60;100.00;96666.50;5023954;28;20088;-61
2021/06/11 07:06:49;;;;;;;12.93;10.32;;;;;;;21.70;100.00;96663.41;5029528;28;20076;-61
2021/06/11 07:09:18;;;;;;;10.55;9.50;;;;;;;22.10;100.00;96671.38;5022076;28;20070;-61
2021/06/11 07:11:48;;;;;;;10.90;9.80;;;;;;;21.99;100.00;96673.66;5025256;28;20069;-61
2021/06/11 07:14:18;;;;;;;11.93;9.57;;;;;;;22.34;100.00;96668.00;5023916;28;21520;-61
2021/06/11 07:16:48;;;;;;;10.73;9.30;;;;;;;22.38;100.00;96666.50;5019385;28;20064;-61
2021/06/11 07:19:17;;;;;;;11.18;9.90;;;;;;;22.23;100.00;96674.84;5024597;28;20088;-59
2021/06/11 07:21:45;;;;;;;10.80;9.23;;;;;;;22.66;100.00;96666.16;5007232;28;20069;-61
2021/06/11 07:24:13;;;;;;;10.55;9.48;;;;;;;22.83;100.00;96674.53;5024241;28;20087;-60
2021/06/11 07:26:41;;;;;;;11.25;9.60;;;;;;;23.30;99.77;96668.88;5021616;28;20061;-59
2021/06/11 07:29:09;;;;;;;10.77;9.68;;;;;;;23.00;100.00;96664.13;5021769;28;20068;-60
2021/06/11 07:31:38;;;;;;;11.02;9.93;;;;;;;23.52;98.81;96666.59;5022013;28;20067;-60
2021/06/11 07:34:06;;;;;;;10.75;9.70;;;;;;;22.93;100.00;96668.72;5024724;28;20083;-61
2021/06/11 07:36:34;;;;;;;12.10;10.10;;;;;;;23.26;97.65;96660.38;5018661;28;20064;-60
2021/06/11 07:39:03;;;;;;;10.45;9.25;;;;;;;23.28;100.00;96660.16;5025266;28;20061;-60
2021/06/11 07:41:31;;;;;;;9.73;8.82;;;;;;;23.63;91.58;96652.38;5021996;28;20064;-61
2021/06/11 07:43:59;;;;;;;10.95;9.10;;;;;;;23.73;98.12;96666.19;5025024;28;20069;-61
2021/06/11 07:46:27;;;;;;;10.50;9.40;;;;;;;23.85;99.42;96661.72;5021755;28;20084;-60
2021/06/11 07:48:56;;;;;;;10.73;9.63;;;;;;;23.69;97.60;96654.22;5005599;28;20073;-60
2021/06/11 07:51:25;;;;;;;11.23;9.02;;;;;;;24.02;90.81;96655.72;5024204;28;20875;-61
2021/06/11 07:53:54;;;;;;;11.07;9.20;;;;;;;24.33;86.31;96660.16;5022470;28;20076;-56
2021/06/11 07:56:22;;;;;;;10.98;9.38;;;;;;;24.26;85.25;96657.53;5014829;28;20069;-61
2021/06/11 07:58:50;;;;;;;9.65;8.50;;;;;;;24.43;80.40;96665.00;5027099;28;20065;-61
2021/06/11 08:01:18;;;;;;;9.27;8.38;;;;;;;24.07;81.99;96656.72;5023914;28;20454;-61
2021/06/11 08:03:46;;;;;;;9.40;8.40;;;;;;;24.19;79.42;96654.09;5005971;28;20076;-62
2021/06/11 08:06:16;;;;;;;9.25;8.35;;;;;;;23.91;84.36;96660.81;5016715;28;20065;-59
2021/06/11 08:08:46;;;;;;;9.45;8.45;;;;;;;24.11;80.93;96657.91;5019714;28;20061;-61
2021/06/11 08:11:15;;;;;;;10.30;8.73;;;;;;;24.09;85.35;96653.81;5022992;28;20619;-61
2021/06/11 08:13:43;;;;;;;9.48;8.20;;;;;;;24.49;83.37;96658.72;5021780;28;20069;-61
2021/06/11 08:16:11;;;;;;;9.23;8.07;;;;;;;24.30;71.57;96655.22;5020639;28;20073;-61
2021/06/11 08:18:39;;;;;;;8.35;7.55;;;;;;;24.51;69.25;96654.75;5023546;28;20523;-59
2021/06/11 08:21:07;;;;;;;8.73;7.82;;;;;;;23.79;76.00;96659.09;5022888;28;20053;-60
2021/06/11 08:23:37;;;;;;;8.45;7.55;;;;;;;23.66;77.75;96662.72;5019688;28;20069;-61
2021/06/11 08:26:05;;;;;;;7.90;7.10;;;;;;;23.90;75.41;96656.47;5025213;28;20068;-61
2021/06/11 08:28:33;;;;;;;9.20;8.30;;;;;;;23.82;82.45;96661.34;5017721;28;20068;-60
2021/06/11 08:31:01;;;;;;;9.20;8.07;;;;;;;24.22;78.23;96659.00;5026707;28;20072;-59
2021/06/11 08:33:29;;;;;;;8.77;7.82;;;;;;;24.59;79.83;96649.03;5020249;28;20065;-60
2021/06/11 08:35:57;;;;;;;9.07;8.18;;;;;;;24.29;78.29;96654.34;5005609;28;20072;-59
2021/06/11 08:38:25;;;;;;;10.18;9.18;;;;;;;24.12;76.08;96656.03;5014258;28;20061;-59
2021/06/11 08:40:54;;;;;;;11.00;9.52;;;;;;;23.79;81.15;96653.72;5025842;28;20064;-61
2021/06/11 08:43:23;;;;;;;;;;;;;;;24.29;81.40;96648.97;5004544;28;20045;-60
2021/06/11 08:45:52;;;;;;;9.30;7.45;;;;;;;24.09;80.53;96656.50;5020249;28;19972;-59
2021/06/11 08:48:21;;;;;;;8.32;7.40;;;;;;;24.87;75.38;96651.09;5022222;28;20087;-58
2021/06/11 08:50:50;;;;;;;9.48;8.52;;;;;;;24.11;75.62;96657.91;5023195;28;20057;-57
2021/06/11 08:53:18;;;;;;;8.82;7.97;;;;;;;24.13;81.15;96655.00;5020688;28;20201;-56
2021/06/11 08:55:46;;;;;;;6.47;5.70;;;;;;;24.50;79.74;96654.97;5018758;28;20061;-57
2021/06/11 08:58:16;;;;;;;7.65;6.88;;;;;;;24.95;74.19;96655.38;5021378;28;20104;-59
2021/06/11 09:00:45;;;;;;;6.25;5.65;;;;;;;24.55;77.17;96647.03;5025426;28;20065;-58
2021/06/11 09:03:15;;;;;;;7.20;6.47;;;;;;;24.63;71.22;96660.19;5024731;28;20624;-54
2021/06/11 09:05:43;;;;;;;;;;;;;;;25.02;65.40;96664.19;5016913;28;20430;-56
2021/06/11 09:08:16;;;;;;;7.63;6.40;;;;;;;24.94;68.24;96660.97;5019204;28;19964;-56
2021/06/11 09:10:46;;;;;;;7.32;6.25;;;;;;;25.29;65.10;96664.63;5018670;28;20445;-59
2021/06/11 09:13:26;;;;;;;6.90;6.20;;;;;;;25.31;64.04;96659.78;5023004;28;20065;-56
2021/06/11 09:16:07;;;;;;;6.50;5.90;;;;;;;25.58;62.58;96670.16;5018292;28;20073;-56
2021/06/11 09:18:43;;;;;;;6.97;6.30;;;;;;;24.95;64.57;96666.16;5001898;28;20065;-59
2021/06/11 09:21:31;;;;;;;6.47;5.82;;;;;;;25.59;61.19;96666.38;4999407;28;20060;-58
2021/06/11 09:24:16;;;;;;;7.47;6.57;;;;;;;25.93;59.58;96666.63;5018028;28;20057;-59
2021/06/11 09:27:12;;;;;;;6.97;6.28;;;;;;;26.22;55.05;96667.50;5018055;28;20064;-60
2021/06/11 09:29:44;;;;;;;8.00;6.60;;;;;;;25.86;57.94;96666.75;5023403;28;20062;-59
2021/06/11 09:32:17;;;;;;;6.85;6.15;;;;;;;26.35;56.24;96669.13;5017309;28;20081;-57
2021/06/11 09:34:46;;;;;;;8.13;6.95;;;;;;;26.03;58.64;96670.38;5022183;28;20068;-58
2021/06/11 09:37:16;;;;;;;7.40;6.70;;;;;;;26.45;58.61;96667.44;5018011;28;20131;-58
2021/06/11 09:39:50;;;;;;;7.38;6.68;;;;;;;26.33;57.30;96666.69;5022078;28;20081;-58
2021/06/11 09:42:20;;;;;;;8.15;7.05;;;;;;;26.32;62.05;96670.44;5021248;28;20061;-60
2021/06/11 09:44:57;;;;;;;7.88;7.07;;;;;;;26.72;53.88;96659.63;5023184;28;20084;-58
2021/06/11 09:47:33;;;;;;;7.68;6.88;;;;;;;26.12;57.61;96673.56;5022717;28;20076;-57
2021/06/11 09:50:07;;;;;;;7.78;7.07;;;;;;;26.76;62.02;96662.66;5018095;28;20068;-58
2021/06/11 09:52:50;;;;;;;7.15;6.45;;;;;;;26.45;56.29;96664.75;5016259;28;20092;-58
2021/06/11 09:55:26;;;;;;;7.95;7.15;;;;;;;26.95;56.12;96663.28;5020779;28;20089;-60
2021/06/11 09:58:13;;;;;;;7.88;7.18;;;;;;;26.64;52.36;96664.63;5022176;28;20081;-59
2021/06/11 10:00:51;;;;;;;7.97;7.18;;;;;;;26.81;53.23;96653.84;5013420;28;20070;-57
2021/06/11 10:03:21;;;;;;;7.25;6.55;;;;;;;26.47;58.85;96667.25;5022677;28;20549;-57
2021/06/11 10:05:50;;;;;;;7.32;6.63;;;;;;;26.80;53.01;96655.69;5020379;28;20524;-59
2021/06/11 10:08:19;;;;;;;7.35;6.70;;;;;;;26.88;63.35;96655.31;5017759;28;20087;-59
2021/06/11 10:10:47;;;;;;;7.00;6.30;;;;;;;27.11;54.64;96657.06;5020128;28;20079;-59
2021/06/11 10:13:16;;;;;;;7.30;6.60;;;;;;;27.08;57.07;96649.44;5017845;28;20084;-59
2021/06/11 10:15:47;;;;;;;6.60;6.00;;;;;;;27.17;50.23;96656.09;5020911;28;20563;-60
2021/06/11 10:18:15;;;;;;;6.30;5.70;;;;;;;27.36;53.07;96645.06;5021417;28;20083;-58
2021/06/11 10:20:44;;;;;;;6.07;5.50;;;;;;;27.61;49.70;96644.63;5021367;28;20068;-55
2021/06/11 10:23:14;;;;;;;6.43;5.82;;;;;;;26.70;48.91;96648.25;5016423;28;20072;-56
2021/06/11 10:25:44;;;;;;;;;;;;;;;27.38;46.55;96648.31;5024223;28;20547;-56
2021/06/11 10:28:13;;;;;;;;;;;;;;;26.70;48.06;96647.38;5023080;28;19921;-58
2021/06/11 10:30:41;;;;;;;5.90;5.30;;;;;;;27.56;48.71;96647.22;5026619;28;19921;-53
2021/06/11 10:33:11;;;;;;;5.38;4.88;;;;;;;27.68;46.67;96643.38;5021131;28;20140;-59
2021/06/11 10:35:41;;;;;;;5.43;4.93;;;;;;;27.93;44.05;96640.22;5023177;28;20072;-59
2021/06/11 10:38:11;;;;;;;5.78;5.25;;;;;;;27.15;47.44;96642.00;5018108;28;20068;-60
2021/06/11 10:40:40;;;;;;;5.33;4.83;;;;;;;28.29;46.86;96635.25;5023558;28;20088;-56
2021/06/11 10:43:25;;;;;;;6.82;6.13;;;;;;;27.98;45.36;96638.63;5020776;28;20519;-56
2021/06/11 10:45:55;;;;;;;5.50;5.00;;;;;;;27.68;46.50;96643.38;5024854;28;20061;-60
2021/06/11 10:48:25;;;;;;;6.10;5.03;;;;;;;27.20;49.49;96639.38;5022258;28;20521;-60
2021/06/11 10:50:53;;;;;;;5.70;5.20;;;;;;;26.49;55.23;96638.06;5026913;28;20053;-58
2021/06/11 10:53:28;;;;;;;6.03;5.53;;;;;;;26.47;55.32;96642.91;5024258;28;20073;-61
2021/06/11 10:56:15;;;;;;;6.07;5.50;;;;;;;26.30;52.77;96642.00;5009551;28;20530;-57
2021/06/11 10:58:46;;;;;;;6.25;5.65;;;;;;;26.18;53.55;96639.31;5017192;28;20073;-59
2021/06/11 11:01:21;;;;;;;6.20;5.60;;;;;;;26.68;49.50;96631.41;5023139;28;20085;-59
2021/06/11 11:03:51;;;;;;;5.55;4.95;;;;;;;27.43;48.47;96626.75;5027266;28;20120;-56
2021/06/11 11:06:35;;;;;;;7.13;5.85;;;;;;;26.92;45.37;96624.00;5026491;28;20073;-57
2021/06/11 11:09:06;;;;;;;5.55;5.03;;;;;;;27.51;42.83;96623.59;5026044;28;20504;-58
2021/06/11 11:11:37;;;;;;;6.00;5.50;;;;;;;27.36;42.94;96623.38;5025437;28;20061;-58
2021/06/11 11:14:06;;;;;;;5.63;5.07;;;;;;;27.35;42.85;96614.41;5023285;28;20072;-58
2021/06/11 11:16:37;;;;;;;5.85;4.95;;;;;;;26.44;46.68;96613.63;5026601;28;20065;-59
2021/06/11 11:19:07;;;;;;;5.85;5.20;;;;;;;27.47;45.25;96613.53;5024989;28;20084;-55
2021/06/11 11:21:37;;;;;;;6.32;4.95;;;;;;;27.48;42.95;96609.75;5029561;28;20100;-60
2021/06/11 11:24:07;;;;;;;4.90;4.35;;;;;;;28.22;43.03;96606.66;5026302;28;20073;-59
2021/06/11 11:26:44;;;;;;;5.35;4.85;;;;;;;27.21;43.57;96600.38;5020958;28;20588;-59
2021/06/11 11:29:13;;;;;;;4.80;4.40;;;;;;;27.67;42.25;96605.69;5027117;28;20095;-54
2021/06/11 11:31:42;;;;;;;5.57;4.30;;;;;;;27.41;42.66;96609.91;5021725;28;20449;-58
2021/06/11 11:34:12;;;;;;;5.78;5.18;;;;;;;26.92;44.62;96609.63;5016456;28;20533;-60